Temp: 17.4°C   Baro: 1015.3mb
  Wind: 4.9mph   Dir: WNW (290°)
  Rain: 0.6mm (0.0mm/hr)
  Solar: 232W/m2  Hum: 62%
 
Bath Spa Weather Station Historical Data
Daily Summary for September 16, 2020 Units:  English    Metric   Both
Daily Weekly Monthly Yearly Custom
  High: Low: Average:
Temperature: 81.4 °F 57.6 °F 66.6 °F
Dew Point: 64.7 °F 56.7 °F 60.2 °F
Humidity: 97% 53.2% 80%
Wind Speed: 8.7mph 0mph 3.3mph
Wind Gust: 22mph - -
Wind- - SSE
Pressure: 30.37 in 30.15 in -
Precipitation: 0.00 in    
Historical Graphs
 
 
Tabular Data for September 16, 2020
Time Temperature Dew Point Pressure Wind Wind Speed Wind Gust Humidity Rainfall Rate (Hourly) solar
00:04 59.7 °F 57.9 °F 30.15 in WNW 1.8 mph 5 mph 91% 0.00 in 0 W/m2
00:09 59.6 °F 57.8 °F 30.15 in WNW 1.3 mph 3 mph 91% 0.00 in 0 W/m2
00:14 59.6 °F 57.8 °F 30.15 in WNW 0.7 mph 2 mph 91% 0.00 in 0 W/m2
00:19 59.5 °F 58 °F 30.15 in WNW 1.1 mph 3 mph 91.6% 0.00 in 0 W/m2
00:24 59.5 °F 58.1 °F 30.15 in WNW 1.7 mph 4 mph 92% 0.00 in 0 W/m2
00:29 59.5 °F 58.1 °F 30.15 in WNW 1.2 mph 4 mph 92% 0.00 in 0 W/m2
00:34 59.5 °F 58.1 °F 30.15 in WNW 1.1 mph 4 mph 92% 0.00 in 0 W/m2
00:39 59.5 °F 58.1 °F 30.15 in WNW 2 mph 3 mph 92% 0.00 in 0 W/m2
00:44 59.4 °F 58.3 °F 30.15 in WNW 2 mph 3 mph 92.8% 0.00 in 0 W/m2
00:49 59.4 °F 58.3 °F 30.15 in WNW 2.2 mph 4 mph 93% 0.00 in 0 W/m2
00:54 59.4 °F 58.3 °F 30.15 in WNW 2.5 mph 4 mph 93% 0.00 in 0 W/m2
00:59 59.4 °F 58.3 °F 30.15 in WNW 2.1 mph 4 mph 93% 0.00 in 0 W/m2
01:04 59.2 °F 58.1 °F 30.15 in WNW 1.3 mph 3 mph 93% 0.00 in 0 W/m2
01:09 59.2 °F 58.1 °F 30.15 in WNW 2.5 mph 4 mph 93% 0.00 in 0 W/m2
01:14 59.2 °F 58.1 °F 30.15 in West 2.2 mph 4 mph 93% 0.00 in 0 W/m2
01:19 59.2 °F 58.3 °F 30.15 in West 0.9 mph 4 mph 93.8% 0.00 in 0 W/m2
01:24 59.3 °F 58.4 °F 30.15 in West 1.2 mph 5 mph 94% 0.00 in 0 W/m2
01:29 59.2 °F 58.3 °F 30.15 in West 2.8 mph 5 mph 94% 0.00 in 0 W/m2
01:34 59.2 °F 58.3 °F 30.15 in West 2.4 mph 6 mph 94% 0.00 in 0 W/m2
01:39 59.2 °F 58.3 °F 30.15 in West 2.5 mph 7 mph 94% 0.00 in 0 W/m2
01:44 59.1 °F 58.2 °F 30.15 in West 2 mph 7 mph 94% 0.00 in 0 W/m2
01:49 59 °F 58.1 °F 30.15 in West 3.8 mph 6 mph 94% 0.00 in 0 W/m2
01:54 58.8 °F 57.9 °F 30.15 in WNW 2.2 mph 6 mph 94% 0.00 in 0 W/m2
01:59 58.8 °F 57.9 °F 30.16 in West 2.5 mph 6 mph 94% 0.00 in 0 W/m2
02:04 58.8 °F 57.9 °F 30.16 in WNW 2 mph 6 mph 94% 0.00 in 0 W/m2
02:09 58.8 °F 57.9 °F 30.16 in WNW 2.3 mph 5 mph 94% 0.00 in 0 W/m2
02:14 58.8 °F 57.9 °F 30.16 in West 0.6 mph 4 mph 94% 0.00 in 0 W/m2
02:19 58.8 °F 57.9 °F 30.16 in West 1.2 mph 4 mph 94% 0.00 in 0 W/m2
02:24 58.9 °F 58 °F 30.16 in West 0.2 mph 2 mph 94% 0.00 in 0 W/m2
02:29 59 °F 58.3 °F 30.16 in West 1 mph 3 mph 94.5% 0.00 in 0 W/m2
02:34 59.1 °F 58.5 °F 30.16 in West 0.9 mph 4 mph 95% 0.00 in 0 W/m2
02:39 59 °F 58.5 °F 30.16 in West 1.7 mph 4 mph 95% 0.00 in 0 W/m2
02:44 59 °F 58.5 °F 30.16 in West 0.4 mph 2 mph 95% 0.00 in 0 W/m2
02:49 59 °F 58.5 °F 30.16 in West 1 mph 4 mph 95% 0.00 in 0 W/m2
02:54 59 °F 58.5 °F 30.16 in West 1.2 mph 3 mph 95% 0.00 in 0 W/m2
02:59 59.1 °F 58.6 °F 30.16 in West 2.6 mph 4 mph 95% 0.00 in 0 W/m2
03:04 59 °F 58.5 °F 30.16 in West 3.1 mph 5 mph 95% 0.00 in 0 W/m2
03:08 59 °F 58.5 °F 30.15 in West 1.7 mph 4 mph 95% 0.00 in 0 W/m2
03:14 58.9 °F 58.4 °F 30.15 in West 2.4 mph 5 mph 95% 0.00 in 0 W/m2
03:19 59 °F 58.5 °F 30.16 in West 2.7 mph 5 mph 95% 0.00 in 0 W/m2
03:24 59 °F 58.5 °F 30.16 in WNW 3.4 mph 5 mph 95% 0.00 in 0 W/m2
03:29 59.1 °F 58.5 °F 30.16 in WNW 3.6 mph 6 mph 95% 0.00 in 0 W/m2
03:34 59.1 °F 58.6 °F 30.16 in WNW 1.9 mph 6 mph 95% 0.00 in 0 W/m2
03:39 59.2 °F 58.6 °F 30.16 in WNW 1.6 mph 4 mph 95% 0.00 in 0 W/m2
03:44 59.2 °F 58.6 °F 30.16 in WNW 1.7 mph 4 mph 95% 0.00 in 0 W/m2
03:49 59.2 °F 58.6 °F 30.16 in WNW 1.6 mph 5 mph 95% 0.00 in 0 W/m2
03:54 59.2 °F 58.6 °F 30.16 in WNW 1.1 mph 4 mph 95% 0.00 in 0 W/m2
03:59 59.1 °F 58.5 °F 30.16 in WNW 1.7 mph 6 mph 95% 0.00 in 0 W/m2
04:04 59 °F 58.5 °F 30.16 in WNW 1.7 mph 4 mph 95% 0.00 in 0 W/m2
04:09 59 °F 58.5 °F 30.16 in WNW 1.4 mph 4 mph 95% 0.00 in 0 W/m2
04:14 59 °F 58.8 °F 30.16 in WNW 1.6 mph 3 mph 96% 0.00 in 0 W/m2
04:19 59 °F 58.7 °F 30.17 in WNW 2.2 mph 5 mph 95.8% 0.00 in 0 W/m2
04:24 58.8 °F 58.6 °F 30.17 in WNW 4 mph 6 mph 96% 0.00 in 0 W/m2
04:29 58.9 °F 58.7 °F 30.17 in WNW 4 mph 5 mph 96% 0.00 in 0 W/m2
04:34 58.8 °F 58.6 °F 30.16 in WNW 3 mph 6 mph 96% 0.00 in 0 W/m2
04:39 58.8 °F 58.6 °F 30.16 in West 1.7 mph 4 mph 96% 0.00 in 0 W/m2
04:44 59 °F 58.8 °F 30.16 in West 0.9 mph 4 mph 96% 0.00 in 0 W/m2
04:49 59 °F 58.8 °F 30.16 in West 0.8 mph 2 mph 96% 0.00 in 0 W/m2
04:54 59 °F 58.8 °F 30.16 in Calm     96% 0.00 in 0 W/m2
04:59 59 °F 58.8 °F 30.16 in Calm     96% 0.00 in 0 W/m2
05:04 59 °F 58.8 °F 30.16 in Calm     96% 0.00 in 0 W/m2
05:09 59 °F 58.8 °F 30.16 in Calm   1 mph 96% 0.00 in 0 W/m2
05:14 59 °F 58.8 °F 30.16 in West 2.2 mph 4 mph 96% 0.00 in 0 W/m2
05:19 58.8 °F 58.6 °F 30.16 in West 0.8 mph 5 mph 96% 0.00 in 0 W/m2
05:24 58.8 °F 58.6 °F 30.16 in West 2.3 mph 3 mph 96% 0.00 in 0 W/m2
05:29 58.6 °F 58.5 °F 30.16 in West 0.2 mph 3 mph 96% 0.00 in 0 W/m2
05:34 58.6 °F 58.5 °F 30.17 in West 2.6 mph 5 mph 96% 0.00 in 0 W/m2
05:39 58.5 °F 58.3 °F 30.17 in WNW 1.6 mph 5 mph 96% 0.00 in 0 W/m2
05:44 58.3 °F 58.2 °F 30.17 in WNW 2.5 mph 5 mph 96% 0.00 in 0 W/m2
05:49 58.3 °F 58.1 °F 30.17 in WNW 1.1 mph 4 mph 96% 0.00 in 0 W/m2
05:54 58.1 °F 57.9 °F 30.17 in WNW 2 mph 3 mph 96% 0.00 in 0 W/m2
05:59 57.9 °F 57.7 °F 30.17 in WNW 1.3 mph 3 mph 96% 0.00 in 0 W/m2
06:04 57.9 °F 57.7 °F 30.17 in West 2.5 mph 4 mph 96% 0.00 in 0 W/m2
06:09 57.9 °F 57.7 °F 30.17 in West 2.4 mph 4 mph 96% 0.00 in 0 W/m2
06:14 57.8 °F 57.7 °F 30.17 in West 2.1 mph 4 mph 96% 0.00 in 0 W/m2
06:19 57.7 °F 57.6 °F 30.17 in West 1.2 mph 3 mph 96% 0.00 in 0 W/m2
06:24 57.7 °F 57.6 °F 30.17 in West 1.2 mph 3 mph 96% 0.00 in 0 W/m2
06:29 57.7 °F 57.6 °F 30.17 in West 2.4 mph 4 mph 96% 0.00 in 0 W/m2
06:34 57.6 °F 57.4 °F 30.17 in West 2.1 mph 4 mph 96% 0.00 in 0 W/m2
06:39 57.6 °F 57.4 °F 30.17 in West 1.7 mph 5 mph 96% 0.00 in 0 W/m2
06:44 57.6 °F 57.4 °F 30.18 in West 2 mph 5 mph 96% 0.00 in 0 W/m2
06:49 57.6 °F 57.4 °F 30.18 in West 2.4 mph 4 mph 96% 0.00 in 0 W/m2
06:54 57.6 °F 57.4 °F 30.18 in WNW 1 mph 4 mph 96% 0.00 in 0 W/m2
06:59 57.6 °F 57.4 °F 30.18 in West 1.6 mph 4 mph 96% 0.00 in 5 W/m2
07:04 57.6 °F 57.4 °F 30.18 in West 1 mph 3 mph 96% 0.00 in 5 W/m2
07:09 57.7 °F 57.5 °F 30.18 in West 1.8 mph 4 mph 96% 0.00 in 9 W/m2
07:14 57.7 °F 57.6 °F 30.18 in West 1 mph 3 mph 96% 0.00 in 11 W/m2
07:19 57.7 °F 57.6 °F 30.19 in West 1.5 mph 4 mph 96% 0.00 in 12 W/m2
07:24 57.7 °F 57.6 °F 30.19 in West 0.5 mph 3 mph 96% 0.00 in 16 W/m2
07:29 57.7 °F 57.6 °F 30.19 in West 1.2 mph 3 mph 96% 0.00 in 16 W/m2
07:34 57.7 °F 57.6 °F 30.19 in West 0.4 mph 3 mph 96% 0.00 in 19 W/m2
07:39 57.7 °F 57.6 °F 30.19 in WSW 2.6 mph 5 mph 96% 0.00 in 23 W/m2
07:44 57.7 °F 57.6 °F 30.20 in WSW 1.2 mph 4 mph 96% 0.00 in 25 W/m2
07:49 57.7 °F 57.6 °F 30.20 in WSW 1 mph 3 mph 96% 0.00 in 37 W/m2
07:54 57.9 °F 57.7 °F 30.20 in WSW 0.4 mph 3 mph 96% 0.00 in 35 W/m2
07:59 57.9 °F 57.7 °F 30.20 in WSW 1.2 mph 3 mph 96% 0.00 in 42 W/m2
08:04 57.9 °F 57.7 °F 30.20 in WSW 0.2 mph 2 mph 96% 0.00 in 47 W/m2
08:09 57.9 °F 57.7 °F 30.20 in WSW 0.6 mph 2 mph 96% 0.00 in 56 W/m2
08:14 57.8 °F 57.7 °F 30.20 in WSW 0.9 mph 4 mph 96% 0.00 in 72 W/m2
08:19 57.8 °F 57.7 °F 30.20 in West 1.6 mph 5 mph 96% 0.00 in 74 W/m2
08:24 57.8 °F 57.7 °F 30.21 in West 1 mph 4 mph 96.4% 0.00 in 97 W/m2
08:29 57.9 °F 57.7 °F 30.21 in West 2 mph 4 mph 96% 0.00 in 102 W/m2
08:34 58.1 °F 57.9 °F 30.21 in West 2 mph 5 mph 96% 0.00 in 109 W/m2
08:39 58.5 °F 58.4 °F 30.21 in Calm   1 mph 96.8% 0.00 in 127 W/m2
08:44 58.6 °F 58.5 °F 30.21 in WNW 0.4 mph 3 mph 96.2% 0.00 in 141 W/m2
08:49 58.8 °F 58.8 °F 30.21 in Calm     96.8% 0.00 in 146 W/m2
08:54 59.2 °F 59.2 °F 30.21 in Calm     96.8% 0.00 in 155 W/m2
08:59 59.1 °F 59.1 °F 30.22 in Calm     97% 0.00 in 162 W/m2
09:04 59.5 °F 59.5 °F 30.22 in WNW 0.2 mph 1 mph 96.8% 0.00 in 181 W/m2
09:09 59.5 °F 59.5 °F 30.22 in Calm   1 mph 96.4% 0.00 in 192 W/m2
09:14 59.8 °F 59.7 °F 30.22 in Calm     96.6% 0.00 in 200 W/m2
09:19 60.2 °F 60 °F 30.22 in Calm     96% 0.00 in 211 W/m2
09:24 60.2 °F 60.1 °F 30.22 in WNW 0.4 mph 3 mph 96% 0.00 in 229 W/m2
09:29 60.6 °F 60.4 °F 30.22 in WNW 0.4 mph 4 mph 96% 0.00 in 239 W/m2
09:34 61.1 °F 60.9 °F 30.22 in WNW 0.7 mph 4 mph 96% 0.00 in 253 W/m2
09:39 61.1 °F 60.7 °F 30.22 in WSW 2 mph 4 mph 95.6% 0.00 in 269 W/m2
09:44 61.4 °F 60.9 °F 30.22 in WSW 2 mph 4 mph 95% 0.00 in 283 W/m2
09:49 61.9 °F 61.1 °F 30.22 in WSW 2.1 mph 5 mph 94.4% 0.00 in 294 W/m2
09:54 62.5 °F 61.5 °F 30.22 in West 0.4 mph 5 mph 93.2% 0.00 in 304 W/m2
09:59 63.1 °F 61.4 °F 30.22 in West 0.2 mph 3 mph 91.2% 0.00 in 315 W/m2
10:04 63.6 °F 61.3 °F 30.22 in West 0.6 mph 4 mph 89.2% 0.00 in 329 W/m2
10:09 64 °F 61.3 °F 30.22 in West 1 mph 3 mph 87.8% 0.00 in 341 W/m2
10:14 64.6 °F 61.3 °F 30.23 in West 1.3 mph 3 mph 86.4% 0.00 in 366 W/m2
10:19 64.9 °F 61.2 °F 30.23 in WSW 0.8 mph 4 mph 85.4% 0.00 in 367 W/m2
10:24 65.4 °F 61.4 °F 30.23 in WSW 0.4 mph 2 mph 84.4% 0.00 in 374 W/m2
10:29 65.8 °F 61.5 °F 30.23 in WSW 0.6 mph 3 mph 83.4% 0.00 in 387 W/m2
10:34 66.8 °F 61.9 °F 30.23 in WSW 0.8 mph 2 mph 81.8% 0.00 in 397 W/m2
10:39 67.4 °F 62.1 °F 30.23 in South 0.6 mph 3 mph 80.8% 0.00 in 404 W/m2
10:44 68.4 °F 62.4 °F 30.23 in South 0.2 mph 1 mph 78.6% 0.00 in 417 W/m2
10:49 68.9 °F 62.1 °F 30.23 in Calm     76.5% 0.00 in 425 W/m2
10:54 70.2 °F 62.5 °F 30.23 in ESE 2 mph 6 mph 74.4% 0.00 in 436 W/m2
10:59 70.5 °F 62 °F 30.23 in ENE 3.8 mph 8 mph 72.2% 0.00 in 441 W/m2
11:04 71.2 °F 62.3 °F 30.23 in ENE 3.7 mph 8 mph 71.4% 0.00 in 455 W/m2
11:09 72 °F 62.3 °F 30.23 in East 2.1 mph 6 mph 69.4% 0.00 in 462 W/m2
11:14 72.2 °F 62.2 °F 30.23 in East 1.8 mph 6 mph 68.6% 0.00 in 469 W/m2
11:19 72.3 °F 62.1 °F 30.23 in ENE 0.6 mph 5 mph 68.2% 0.00 in 485 W/m2
11:24 73.2 °F 62.2 °F 30.23 in ESE 3.2 mph 5 mph 66.5% 0.00 in 487 W/m2
11:29 73.8 °F 62.7 °F 30.23 in SE 3.2 mph 6 mph 66.4% 0.00 in 497 W/m2
11:34 73.5 °F 63.5 °F 30.23 in SE 2 mph 8 mph 68.8% 0.00 in 503 W/m2
11:39 73.6 °F 63.7 °F 30.23 in ESE 2.9 mph 7 mph 69.2% 0.00 in 504 W/m2
11:44 73.2 °F 62.9 °F 30.23 in ESE 5 mph 11 mph 68% 0.00 in 512 W/m2
11:49 73.2 °F 63.1 °F 30.23 in ESE 5.5 mph 9 mph 68.2% 0.00 in 515 W/m2
11:54 73.1 °F 63.2 °F 30.23 in SE 5.4 mph 12 mph 69% 0.00 in 526 W/m2
11:59 74 °F 63.5 °F 30.23 in East 5 mph 12 mph 68% 0.00 in 533 W/m2
12:04 75 °F 64.2 °F 30.23 in ESE 3.6 mph 9 mph 67% 0.00 in 538 W/m2
12:09 75.2 °F 63.6 °F 30.23 in East 2.4 mph 9 mph 65.4% 0.00 in 538 W/m2
12:14 75.8 °F 64.1 °F 30.23 in East 2.7 mph 7 mph 65% 0.00 in 543 W/m2
12:19 76.8 °F 64.3 °F 30.23 in East 2.5 mph 8 mph 63.4% 0.00 in 547 W/m2
12:24 77 °F 64.2 °F 30.23 in East 4.9 mph 9 mph 63% 0.00 in 550 W/m2
12:29 76.2 °F 63.7 °F 30.22 in ESE 8.7 mph 11 mph 63.4% 0.00 in 554 W/m2
12:34 76 °F 64.2 °F 30.22 in East 4 mph 10 mph 64.8% 0.00 in 557 W/m2
12:39 76.8 °F 64 °F 30.22 in East 3.8 mph 11 mph 63% 0.00 in 561 W/m2
12:44 76.8 °F 63.9 °F 30.22 in East 3.5 mph 11 mph 62.6% 0.00 in 563 W/m2
12:49 77.3 °F 64.2 °F 30.22 in East 5.7 mph 13 mph 62.3% 0.00 in 566 W/m2
12:54 77.5 °F 63.9 °F 30.22 in East 5.6 mph 11 mph 61.2% 0.00 in 566 W/m2
12:59 77.5 °F 63.9 °F 30.22 in ENE 7.8 mph 13 mph 61% 0.00 in 571 W/m2
13:04 77.4 °F 63.5 °F 30.22 in ESE 2.5 mph 13 mph 60.4% 0.00 in 575 W/m2
13:09 77.6 °F 62.6 °F 30.22 in East 6.2 mph 15 mph 58.2% 0.00 in 575 W/m2
13:14 77.9 °F 62.6 °F 30.22 in ENE 6.2 mph 11 mph 57.6% 0.00 in 575 W/m2
13:18 78 °F 62.6 °F 30.22 in NE 3.7 mph 9 mph 57.5% 0.00 in 577 W/m2
13:24 79 °F 63.2 °F 30.22 in East 4.1 mph 7 mph 56.6% 0.00 in 577 W/m2
13:29 79.4 °F 63 °F 30.22 in East 4.8 mph 14 mph 55.6% 0.00 in 571 W/m2
13:34 79.2 °F 62.7 °F 30.22 in ENE 6.2 mph 10 mph 55.4% 0.00 in 573 W/m2
13:39 79.1 °F 62.9 °F 30.22 in ESE 3.1 mph 12 mph 56% 0.00 in 575 W/m2
13:44 79.5 °F 63.2 °F 30.22 in ENE 5 mph 14 mph 55.8% 0.00 in 571 W/m2
13:49 79.3 °F 63 °F 30.22 in East 3.8 mph 14 mph 55.8% 0.00 in 573 W/m2
13:54 79.7 °F 62.7 °F 30.22 in SE 3.2 mph 7 mph 54.6% 0.00 in 571 W/m2
13:59 80.1 °F 63.4 °F 30.22 in ESE 3.9 mph 11 mph 55.2% 0.00 in 571 W/m2
14:04 80.6 °F 63.6 °F 30.22 in East 4.5 mph 13 mph 54.6% 0.00 in 566 W/m2
14:09 80.6 °F 63 °F 30.22 in ESE 6.3 mph 13 mph 53.4% 0.00 in 563 W/m2
14:14 80 °F 62.7 °F 30.22 in ESE 6 mph 15 mph 53.8% 0.00 in 561 W/m2
14:19 80.2 °F 62.8 °F 30.22 in East 5.7 mph 11 mph 53.8% 0.00 in 557 W/m2
14:24 80.3 °F 62.9 °F 30.22 in ESE 5.2 mph 11 mph 53.8% 0.00 in 555 W/m2
14:29 81.1 °F 63.5 °F 30.22 in ENE 2.5 mph 10 mph 53.8% 0.00 in 541 W/m2
14:34 80.5 °F 63 °F 30.22 in ENE 5.6 mph 10 mph 53.6% 0.00 in 534 W/m2
14:39 80.1 °F 62.9 °F 30.22 in East 4.5 mph 15 mph 54.2% 0.00 in 533 W/m2
14:44 80.3 °F 63.5 °F 30.22 in ESE 3 mph 10 mph 55% 0.00 in 527 W/m2
14:49 81.4 °F 63.5 °F 30.22 in ESE 1.7 mph 7 mph 53.2% 0.00 in 524 W/m2
14:54 80.9 °F 63.6 °F 30.22 in NE 5.6 mph 10 mph 54.2% 0.00 in 512 W/m2
14:59 80.3 °F 63.5 °F 30.22 in NE 5.5 mph 14 mph 55% 0.00 in 506 W/m2
15:04 79.5 °F 63.2 °F 30.22 in ENE 7.2 mph 14 mph 55.8% 0.00 in 499 W/m2
15:08 79.5 °F 63.3 °F 30.22 in NE 2.7 mph 10 mph 56% 0.00 in 492 W/m2
15:14 80.4 °F 63.6 °F 30.22 in ENE 1.7 mph 5 mph 55% 0.00 in 478 W/m2
15:19 80.8 °F 63.7 °F 30.22 in ESE 2.5 mph 7 mph 54.6% 0.00 in 475 W/m2
15:24 80.5 °F 63.7 °F 30.22 in ESE 5.4 mph 11 mph 55% 0.00 in 471 W/m2
15:29 80.8 °F 63.6 °F 30.22 in SE 3.3 mph 9 mph 54.4% 0.00 in 469 W/m2
15:34 80.8 °F 63.5 °F 30.22 in ESE 4.9 mph 10 mph 54% 0.00 in 452 W/m2
15:39 81 °F 63.8 °F 30.22 in ENE 4.3 mph 8 mph 54.4% 0.00 in 445 W/m2
15:44 80.1 °F 63.5 °F 30.22 in NE 5.6 mph 9 mph 55.4% 0.00 in 429 W/m2
15:49 79.4 °F 63.7 °F 30.22 in ENE 5.8 mph 10 mph 56.8% 0.00 in 418 W/m2
15:54 79.8 °F 63.7 °F 30.22 in NNE 4.8 mph 9 mph 56.3% 0.00 in 408 W/m2
15:59 79.4 °F 63.3 °F 30.22 in NE 4.7 mph 15 mph 56.2% 0.00 in 404 W/m2
16:04 79 °F 63.3 °F 30.22 in ENE 7.6 mph 15 mph 57% 0.00 in 396 W/m2
16:09 79.2 °F 63.4 °F 30.22 in NE 5.9 mph 16 mph 56.8% 0.00 in 383 W/m2
16:14 78.6 °F 63 °F 30.22 in NE 7.6 mph 16 mph 57% 0.00 in 376 W/m2
16:19 78.5 °F 62.8 °F 30.22 in NNE 4.5 mph 13 mph 57% 0.00 in 362 W/m2
16:24 78.4 °F 62.7 °F 30.22 in ENE 7.4 mph 13 mph 57% 0.00 in 343 W/m2
16:29 78.2 °F 63 °F 30.23 in NNE 5.2 mph 11 mph 57.8% 0.00 in 339 W/m2
16:34 78.3 °F 63.1 °F 30.23 in ENE 7.2 mph 13 mph 58% 0.00 in 336 W/m2
16:39 78.3 °F 63.1 °F 30.23 in ENE 6.4 mph 14 mph 58% 0.00 in 316 W/m2
16:44 78.5 °F 63.4 °F 30.22 in ENE 4.1 mph 11 mph 58% 0.00 in 309 W/m2
16:49 78.4 °F 63.1 °F 30.22 in ENE 4.2 mph 15 mph 57.6% 0.00 in 301 W/m2
16:54 78.5 °F 63.4 °F 30.22 in ENE 5.7 mph 14 mph 58% 0.00 in 281 W/m2
16:59 78.5 °F 63.5 °F 30.22 in NE 7.5 mph 14 mph 58.2% 0.00 in 267 W/m2
17:04 78.4 °F 63.7 °F 30.22 in ENE 4 mph 11 mph 59% 0.00 in 258 W/m2
17:09 78.5 °F 63.8 °F 30.23 in NE 4.9 mph 12 mph 59% 0.00 in 244 W/m2
17:14 78.1 °F 63.8 °F 30.23 in NE 4.3 mph 10 mph 59.8% 0.00 in 230 W/m2
17:19 78.1 °F 64.1 °F 30.23 in East 4.2 mph 8 mph 60.3% 0.00 in 220 W/m2
17:24 78 °F 64.3 °F 30.23 in NE 5.4 mph 13 mph 61% 0.00 in 209 W/m2
17:29 78.1 °F 64.6 °F 30.23 in ENE 6.3 mph 10 mph 61.6% 0.00 in 195 W/m2
17:34 77.8 °F 64.7 °F 30.23 in ENE 5.4 mph 11 mph 62% 0.00 in 186 W/m2
17:39 77.4 °F 64.4 °F 30.23 in ENE 7.2 mph 13 mph 62.6% 0.00 in 171 W/m2
17:44 76.6 °F 64.2 °F 30.23 in NNE 4.7 mph 13 mph 63.8% 0.00 in 156 W/m2
17:49 76.3 °F 64.2 °F 30.23 in ENE 6.3 mph 14 mph 64.2% 0.00 in 146 W/m2
17:54 76.3 °F 64.1 °F 30.24 in ENE 5.6 mph 9 mph 64.2% 0.00 in 135 W/m2
17:59 76.3 °F 64 °F 30.24 in ENE 4 mph 10 mph 64% 0.00 in 123 W/m2
18:04 76.3 °F 64 °F 30.24 in East 4.7 mph 10 mph 64% 0.00 in 111 W/m2
18:09 76.1 °F 64.3 °F 30.24 in ENE 2.8 mph 8 mph 64.8% 0.00 in 98 W/m2
18:14 75.9 °F 64.2 °F 30.24 in NE 4.6 mph 15 mph 65% 0.00 in 90 W/m2
18:19 75.6 °F 63.8 °F 30.24 in NE 3.4 mph 14 mph 64.8% 0.00 in 77 W/m2
18:24 75.1 °F 63.5 °F 30.24 in NE 5.9 mph 13 mph 65.2% 0.00 in 63 W/m2
18:29 74.6 °F 63.5 °F 30.24 in ENE 5.8 mph 10 mph 66.4% 0.00 in 53 W/m2
18:34 74.1 °F 63.3 °F 30.25 in NE 3.5 mph 13 mph 67% 0.00 in 40 W/m2
18:39 73.8 °F 63 °F 30.25 in East 5.1 mph 10 mph 67% 0.00 in 40 W/m2
18:44 73.6 °F 63 °F 30.25 in ENE 5.2 mph 10 mph 67.4% 0.00 in 28 W/m2
18:49 73.3 °F 63.2 °F 30.25 in ENE 5 mph 13 mph 68.5% 0.00 in 26 W/m2
18:54 72.9 °F 63 °F 30.25 in ENE 5.8 mph 14 mph 69% 0.00 in 23 W/m2
18:59 72.4 °F 62.9 °F 30.25 in ENE 4 mph 14 mph 70% 0.00 in 19 W/m2
19:04 72.1 °F 62.5 °F 30.25 in ENE 4.7 mph 11 mph 70% 0.00 in 16 W/m2
19:09 71.9 °F 62.3 °F 30.26 in East 2 mph 18 mph 70% 0.00 in 14 W/m2
19:14 71.5 °F 62.3 °F 30.26 in ENE 5.1 mph 11 mph 70.6% 0.00 in 11 W/m2
19:19 71.2 °F 62.2 °F 30.26 in ENE 5 mph 13 mph 71% 0.00 in 7 W/m2
19:24 70.9 °F 62 °F 30.27 in ENE 5.5 mph 9 mph 71% 0.00 in 0 W/m2
19:29 70.6 °F 61.7 °F 30.27 in NE 7 mph 17 mph 71.4% 0.00 in 0 W/m2
19:34 70.3 °F 61.7 °F 30.27 in East 4 mph 11 mph 72% 0.00 in 0 W/m2
19:39 70.1 °F 61.4 °F 30.27 in ENE 4.1 mph 14 mph 72% 0.00 in 0 W/m2
19:44 69.8 °F 61.2 °F 30.27 in ENE 4.4 mph 14 mph 72% 0.00 in 0 W/m2
19:49 69.5 °F 60.9 °F 30.27 in East 5.8 mph 15 mph 72% 0.00 in 0 W/m2
19:54 69.3 °F 61.2 °F 30.28 in East 4.9 mph 16 mph 73% 0.00 in 0 W/m2
19:59 68.9 °F 60.8 °F 30.28 in ENE 4.8 mph 16 mph 73% 0.00 in 0 W/m2
20:04 68.6 °F 60.5 °F 30.28 in ENE 5.3 mph 14 mph 73% 0.00 in 0 W/m2
20:09 68.5 °F 60.4 °F 30.29 in ESE 2.9 mph 9 mph 73% 0.00 in 0 W/m2
20:14 68.3 °F 60.4 °F 30.29 in ENE 4.3 mph 12 mph 73.8% 0.00 in 0 W/m2
20:19 67.8 °F 60.1 °F 30.29 in ENE 7.4 mph 16 mph 74% 0.00 in 0 W/m2
20:24 67.3 °F 59.6 °F 30.30 in East 6.8 mph 18 mph 74% 0.00 in 0 W/m2
20:29 66.8 °F 59.1 °F 30.30 in NE 7 mph 21 mph 74% 0.00 in 0 W/m2
20:34 66.4 °F 58.7 °F 30.30 in ENE 8.2 mph 17 mph 74.3% 0.00 in 0 W/m2
20:39 66 °F 58.7 °F 30.30 in East 7.2 mph 16 mph 75% 0.00 in 0 W/m2
20:44 65.7 °F 58.5 °F 30.31 in East 5 mph 15 mph 75% 0.00 in 0 W/m2
20:49 65.5 °F 58.3 °F 30.31 in ENE 3.6 mph 12 mph 75% 0.00 in 0 W/m2
20:54 65.1 °F 57.9 °F 30.31 in East 6.4 mph 22 mph 75% 0.00 in 0 W/m2
20:59 64.8 °F 57.9 °F 30.31 in ENE 5.1 mph 22 mph 76% 0.00 in 0 W/m2
21:04 64.6 °F 57.7 °F 30.32 in ENE 5 mph 13 mph 76% 0.00 in 0 W/m2
21:09 64.1 °F 57.7 °F 30.32 in East 5.8 mph 13 mph 77.2% 0.00 in 0 W/m2
21:14 63.8 °F 57.7 °F 30.32 in East 3.7 mph 11 mph 78% 0.00 in 0 W/m2
21:19 63.5 °F 57.6 °F 30.32 in NE 5 mph 10 mph 78.6% 0.00 in 0 W/m2
21:24 63.2 °F 57.5 °F 30.32 in ENE 4.8 mph 14 mph 79% 0.00 in 0 W/m2
21:29 63.1 °F 57.6 °F 30.32 in ENE 6.8 mph 16 mph 79.6% 0.00 in 0 W/m2
21:34 63 °F 57.6 °F 30.33 in East 7.6 mph 14 mph 80% 0.00 in 0 W/m2
21:39 63 °F 57.8 °F 30.33 in ENE 6 mph 14 mph 80.6% 0.00 in 0 W/m2
21:44 62.8 °F 57.7 °F 30.33 in East 4.9 mph 16 mph 81% 0.00 in 0 W/m2
21:49 62.8 °F 57.7 °F 30.33 in East 7 mph 13 mph 81% 0.00 in 0 W/m2
21:54 62.6 °F 57.6 °F 30.33 in East 8.5 mph 14 mph 81% 0.00 in 0 W/m2
21:59 62.4 °F 57.5 °F 30.34 in East 5.8 mph 21 mph 81.2% 0.00 in 0 W/m2
22:04 62.2 °F 57.6 °F 30.34 in NE 6.8 mph 13 mph 82% 0.00 in 0 W/m2
22:09 62.1 °F 57.4 °F 30.34 in ENE 4.5 mph 11 mph 82% 0.00 in 0 W/m2
22:14 62.1 °F 57.4 °F 30.35 in ENE 6.6 mph 15 mph 82% 0.00 in 0 W/m2
22:19 61.9 °F 57.2 °F 30.35 in ENE 7 mph 17 mph 82% 0.00 in 0 W/m2
22:24 61.6 °F 56.9 °F 30.35 in East 6.5 mph 14 mph 82% 0.00 in 0 W/m2
22:29 61.5 °F 57 °F 30.35 in ENE 5.9 mph 15 mph 82.6% 0.00 in 0 W/m2
22:34 61.3 °F 57 °F 30.36 in NE 6.4 mph 16 mph 83% 0.00 in 0 W/m2
22:39 61.3 °F 57 °F 30.36 in East 3.6 mph 8 mph 83% 0.00 in 0 W/m2
22:44 61.3 °F 57 °F 30.36 in East 2.5 mph 7 mph 83% 0.00 in 0 W/m2
22:49 61.2 °F 56.8 °F 30.36 in East 4 mph 10 mph 83% 0.00 in 0 W/m2
22:54 61.2 °F 56.8 °F 30.36 in East 4.5 mph 9 mph 83% 0.00 in 0 W/m2
22:59 61.2 °F 56.8 °F 30.36 in ESE 1.2 mph 9 mph 83% 0.00 in 0 W/m2
23:04 61.2 °F 56.8 °F 30.36 in ENE 0.6 mph 4 mph 83% 0.00 in 0 W/m2
23:09 61.2 °F 56.8 °F 30.36 in East 3.2 mph 10 mph 83% 0.00 in 0 W/m2
23:14 61.2 °F 57 °F 30.36 in ENE 6.4 mph 11 mph 83.4% 0.00 in 0 W/m2
23:19 61 °F 57 °F 30.36 in ENE 6.4 mph 11 mph 84% 0.00 in 0 W/m2
23:24 61 °F 57 °F 30.37 in ENE 3.1 mph 9 mph 84% 0.00 in 0 W/m2
23:29 61 °F 57 °F 30.37 in NE 1.9 mph 9 mph 84% 0.00 in 0 W/m2
23:34 61 °F 57 °F 30.37 in ENE 5.4 mph 12 mph 84% 0.00 in 0 W/m2
23:39 61 °F 57 °F 30.37 in East 2 mph 9 mph 84% 0.00 in 0 W/m2
23:44 60.9 °F 56.9 °F 30.37 in ENE 5.5 mph 12 mph 84% 0.00 in 0 W/m2
23:49 60.8 °F 56.8 °F 30.37 in ENE 5.2 mph 10 mph 84% 0.00 in 0 W/m2
23:54 60.6 °F 56.7 °F 30.37 in East 3.5 mph 13 mph 84% 0.00 in 0 W/m2
23:59 60.6 °F 56.7 °F 30.37 in SE 3.1 mph 13 mph 84% 0.00 in 0 W/m2
Bath Spa Weather
Compliments of Weather Underground - 2 mb